Al Udeid, Qatar

3:43 AM AST on July 29, 2014 (GMT +0300)
Al Waab (IDOHADOH3) Elev 69 ft | 25.26 °N, 51.46 °E | Change Station

Current weather conditions updated 36 minutes ago

Clear
Clear
95.2 °F
Feels Like 96 °F
N
8.3
Wind Variable Wind from North
Gusts 13.0 mph

Today is forecast to be nearly the same temperature as yesterday.

Today
High -- | Low -- °F
--% Chance of Precip.
Yesterday
High -- | Low -- °F
Precip. -- in
5:00 AM 6:21 PM
Waxing Crescent, 4% visible
Pressure 29.44 in
Visibility 4.3 miles
Clouds
Heat Index 96 °F
Dew Point 62 °F
Humidity 34%
Rainfall 0.00 in
Snow Depth Not available.
UV Not available.
Pollen Not available.
Air Quality Not available.
Flu Activity Not available.
METAR OTBD 290000Z 31015KT 270V340 7000 NSC 37/15 Q0997 NOSIG

More Conditions Fewer Conditions

Pressure 29.44 in
Visibility 4.3 miles
Clouds
Heat Index 96 °F
Dew Point 62 °F
Humidity 34%
Rainfall 0.00 in
Snow Depth Not available.
UV Not available.
Pollen Not available.
Air Quality Not available.
Flu Activity Not available.
METAR OTBD 290000Z 31015KT 270V340 7000 NSC 37/15 Q0997 NOSIG

More Conditions Fewer Conditions

10-Day Weather Forecast

Almanac

Astronomy

Jul. 29, 2014 Rise Set
Actual Time 5:00 AM AST 6:21 PM AST
Civil Twilight 4:35 AM AST 6:46 PM AST
Nautical Twilight 4:06 AM AST 7:15 PM AST
Astronomical Twilight 3:35 AM AST 7:46 PM AST
Moon 6:56 AM AST 7:43 PM AST
Length of Visible Light 14h 10m
Length of Day
13h 21m
Tomorrow will be 1m 3s shorter.
Waxing Crescent, 4% of the Moon is Illuminated
Jul 28
Waxing Crescent
Aug 3
First Quarter
Aug 10
Full
Aug 17
Last Quarter
Aug 25
New

Yesterday's Extremes

Country Highs Country Lows

Community

WunderPhotos

Upload Photos

1,738,571 photos uploaded!

WunderBlogs® & News

Nearby

Snow Depth

Not available.

Earthquake Activity

City Distance Mag. Time & Date
No recent earthquake activity has been reported nearby.
Minimum magnitude displayed is 2.5.

Coastal Water Temperatures

Place Temperature
No Stations Reporting

Nearby Weather Stations

Station Location Temp. Heat Index Dew Point Humidity Wind Precip. Elev Updated Type
Al Waab, Doha 95.2 °F 96 °F 62 °F 34% North  at  8.3 mph 0.00 in / hr 69 ft 3:06 AM AST Normal
Wakra, Wakra 97.0 °F 97 °F 60 °F 30% NNW  at  15.2 mph 0.00 in / hr 23 ft 3:43 AM AST Rapid Fire

Show More Stations Show Fewer Stations